Time;durP1;ratioP1;P1;durP2;ratioP2;P2;SDS_P1;SDS_P2;PMS_P1;PMS_P2;Temp;Humidity;BMP_temperature;BMP_pressure;BME280_temperature;BME280_humidity;BME280_pressure;Samples;Min_cycle;Max_cycle;Signal;HPM_P1;HPM_P2
2023/04/11 00:01:48;;;;;;;30.30;6.18;;;;;;;9.09;95.37;100840.81;5012930;28;20026;-72
2023/04/11 00:04:15;;;;;;;29.17;5.78;;;;;;;9.02;95.58;100841.81;5014286;28;20081;-72
2023/04/11 00:06:41;;;;;;;28.30;5.38;;;;;;;8.97;94.96;100835.75;5012812;28;20454;-72
2023/04/11 00:09:09;;;;;;;35.90;6.90;;;;;;;8.91;95.20;100855.19;5013004;28;20034;-72
2023/04/11 00:11:35;;;;;;;26.08;5.63;;;;;;;9.02;94.11;100840.03;5025298;28;20045;-72
2023/04/11 00:14:00;;;;;;;32.42;6.80;;;;;;;8.91;94.87;100852.56;5014234;28;20045;-72
2023/04/11 00:16:26;;;;;;;34.50;6.32;;;;;;;8.98;93.98;100837.50;5012695;28;20065;-72
2023/04/11 00:18:51;;;;;;;34.20;6.70;;;;;;;8.89;94.56;100845.56;5013987;28;20036;-72
2023/04/11 00:21:17;;;;;;;31.65;6.32;;;;;;;8.86;94.89;100842.97;5012310;28;20480;-72
2023/04/11 00:23:42;;;;;;;31.17;6.85;;;;;;;8.91;94.83;100851.69;5013730;28;20045;-72
2023/04/11 00:26:07;;;;;;;24.85;5.20;;;;;;;8.83;94.91;100841.25;5012468;28;20033;-73
2023/04/11 00:28:34;;;;;;;34.90;6.68;;;;;;;8.74;95.10;100854.56;5012545;28;20409;-72
2023/04/11 00:31:01;;;;;;;31.17;6.55;;;;;;;8.67;96.46;100858.19;5012289;28;20030;-72
2023/04/11 00:33:26;;;;;;;31.05;5.80;;;;;;;8.67;95.62;100858.19;5012473;28;20041;-72
2023/04/11 00:35:52;;;;;;;36.25;7.55;;;;;;;8.62;95.71;100855.59;5009625;28;20445;-72
2023/04/11 00:38:18;;;;;;;33.85;6.50;;;;;;;8.57;96.47;100857.44;4995930;28;20025;-72
2023/04/11 00:40:43;;;;;;;34.88;7.30;;;;;;;8.49;96.64;100857.53;5013806;28;20372;-72
2023/04/11 00:43:09;;;;;;;41.67;6.63;;;;;;;8.54;96.17;100863.63;5012236;28;20038;-73
2023/04/11 00:45:35;;;;;;;36.65;6.53;;;;;;;8.51;96.55;100866.31;5013376;28;20025;-72
2023/04/11 00:48:01;;;;;;;32.05;6.97;;;;;;;8.45;97.22;100861.09;5012098;28;20072;-73
2023/04/11 00:50:27;;;;;;;34.65;6.75;;;;;;;8.50;96.55;100868.97;5013388;28;20021;-73
2023/04/11 00:52:55;;;;;;;30.20;6.95;;;;;;;8.48;96.57;100861.09;5012056;28;20026;-73
2023/04/11 00:55:21;;;;;;;36.05;6.70;;;;;;;8.43;97.04;100864.66;5011682;28;20505;-73
2023/04/11 00:57:47;;;;;;;32.85;6.47;;;;;;;8.45;96.68;100863.75;4995740;28;20034;-73
2023/04/11 01:00:13;;;;;;;29.42;6.18;;;;;;;8.40;96.79;100861.16;5018022;28;20025;-73
2023/04/11 01:02:41;;;;;;;35.38;6.28;;;;;;;8.37;97.51;100855.03;5013129;28;20129;-73
2023/04/11 01:05:13;;;;;;;34.35;6.63;;;;;;;8.43;96.53;100859.38;4997875;28;21704;-73
2023/04/11 01:07:42;;;;;;;34.08;6.82;;;;;;;8.39;97.36;100854.13;5011911;28;20137;-73
2023/04/11 01:10:09;;;;;;;32.55;7.40;;;;;;;8.39;96.30;100858.53;5011411;28;20034;-73
2023/04/11 01:12:35;;;;;;;39.38;6.18;;;;;;;8.35;96.69;100854.16;5011662;28;20096;-73
2023/04/11 01:15:01;;;;;;;31.15;6.70;;;;;;;8.37;96.51;100858.53;5020274;28;20033;-73
2023/04/11 01:17:27;;;;;;;30.92;6.05;;;;;;;8.47;95.27;100858.44;5013214;28;20469;-73
2023/04/11 01:19:53;;;;;;;32.90;5.50;;;;;;;8.37;96.41;100860.31;5011453;28;20025;-72
2023/04/11 01:22:21;;;;;;;36.55;6.07;;;;;;;8.33;97.09;100856.84;5011521;28;20137;-72
2023/04/11 01:24:48;;;;;;;39.35;7.25;;;;;;;8.30;97.36;100851.56;5012529;28;20026;-73
2023/04/11 01:27:14;;;;;;;35.53;6.63;;;;;;;8.29;96.67;100855.13;5012741;28;20428;-73
2023/04/11 01:29:40;;;;;;;31.45;6.40;;;;;;;8.30;96.53;100861.25;5011255;28;20114;-73
2023/04/11 01:32:05;;;;;;;31.42;6.50;;;;;;;8.29;96.64;100859.53;4995136;28;20544;-73
2023/04/11 01:34:32;;;;;;;30.42;6.95;;;;;;;8.22;96.59;100856.09;5011168;28;20350;-73
2023/04/11 01:36:58;;;;;;;34.30;7.10;;;;;;;8.17;97.30;100850.84;5012344;28;20435;-73
2023/04/11 01:39:23;;;;;;;33.13;6.47;;;;;;;8.18;96.65;100864.91;5010992;28;20169;-73
2023/04/11 01:41:50;;;;;;;34.75;7.43;;;;;;;8.14;96.70;100856.19;5010253;28;20040;-73
2023/04/11 01:44:19;;;;;;;37.55;6.10;;;;;;;8.20;95.91;100863.13;5012205;28;20030;-73
2023/04/11 01:46:46;;;;;;;31.45;6.65;;;;;;;8.09;96.60;100868.53;5023178;28;20140;-73
2023/04/11 01:49:14;;;;;;;34.35;6.00;;;;;;;8.07;97.08;100882.66;5012247;28;20022;-73
2023/04/11 01:51:41;;;;;;;30.15;5.25;;;;;;;8.07;96.42;100885.28;5012718;28;20107;-73
2023/04/11 01:54:06;;;;;;;38.00;6.43;;;;;;;8.01;97.27;100885.31;5011104;28;20052;-73
2023/04/11 01:56:32;;;;;;;38.72;6.00;;;;;;;7.96;97.72;100880.09;5010881;28;20030;-73
2023/04/11 01:58:57;;;;;;;33.80;6.05;;;;;;;8.08;96.60;100892.28;5012098;28;20503;-73
2023/04/11 02:01:24;;;;;;;35.92;6.07;;;;;;;8.02;96.76;100889.72;5010674;28;20398;-73
2023/04/11 02:03:50;;;;;;;31.63;6.65;;;;;;;8.07;96.06;100888.78;4994330;28;20030;-72
2023/04/11 02:06:15;;;;;;;23.80;5.22;;;;;;;8.00;97.05;100897.66;5009840;28;20082;-73
2023/04/11 02:08:42;;;;;;;25.80;5.75;;;;;;;8.02;96.73;100901.16;5011959;28;20061;-73
2023/04/11 02:11:07;;;;;;;32.75;5.75;;;;;;;8.03;97.63;100900.25;5012095;28;20374;-73
2023/04/11 02:13:34;;;;;;;29.48;5.90;;;;;;;7.96;97.52;100890.66;5011861;28;20029;-73
2023/04/11 02:16:13;;;;;;;32.53;5.95;;;;;;;7.96;97.73;100898.56;5013863;28;20041;-73
2023/04/11 02:18:41;;;;;;;33.72;5.68;;;;;;;7.95;97.15;100897.69;5011275;28;20033;-73
2023/04/11 02:21:06;;;;;;;36.03;5.82;;;;;;;7.99;96.80;100898.56;5010622;28;20057;-73
2023/04/11 02:23:33;;;;;;;28.20;5.95;;;;;;;7.95;96.96;100900.31;5010542;28;20446;-73
2023/04/11 02:25:59;;;;;;;32.75;5.85;;;;;;;7.90;97.61;100893.34;5010561;28;20037;-73
2023/04/11 02:28:26;;;;;;;34.05;5.97;;;;;;;7.90;97.07;100896.88;5011877;28;20033;-73
2023/04/11 02:30:52;;;;;;;26.67;4.95;;;;;;;7.89;97.32;100905.69;5010535;28;20148;-73
2023/04/11 02:33:18;;;;;;;30.27;7.05;;;;;;;7.88;96.79;100911.81;5010523;28;20401;-73
2023/04/11 02:35:45;;;;;;;35.35;5.47;;;;;;;7.90;95.99;100909.19;5003181;28;20035;-73
2023/04/11 02:38:11;;;;;;;28.15;4.75;;;;;;;7.89;96.14;100908.31;5011811;28;20141;-73
2023/04/11 02:40:36;;;;;;;31.25;5.07;;;;;;;7.82;96.02;100908.41;5009628;28;20180;-73
2023/04/11 02:43:02;;;;;;;33.88;5.22;;;;;;;7.79;96.53;100911.94;5010233;28;20073;-73
2023/04/11 02:45:29;;;;;;;26.80;5.22;;;;;;;7.71;96.33;100904.06;4994243;28;20045;-73
2023/04/11 02:47:54;;;;;;;28.75;5.18;;;;;;;7.79;95.86;100916.31;5010318;28;20861;-73
2023/04/11 02:50:20;;;;;;;26.90;5.18;;;;;;;7.76;95.17;100917.22;5011537;28;20507;-73
2023/04/11 02:52:49;;;;;;;34.88;5.95;;;;;;;7.68;95.64;100914.66;4994412;28;20034;-73
2023/04/11 02:55:18;;;;;;;32.60;4.75;;;;;;;7.62;96.31;100912.06;5010129;28;20519;-73
2023/04/11 02:57:44;;;;;;;26.23;4.85;;;;;;;7.67;95.94;100927.84;5010336;28;20050;-73
2023/04/11 03:00:12;;;;;;;24.10;4.22;;;;;;;7.60;95.61;100923.53;5010079;28;20667;-73
2023/04/11 03:02:48;;;;;;;18.92;3.85;;;;;;;7.61;95.00;100930.53;5010184;28;20160;-73
2023/04/11 03:05:18;;;;;;;23.10;3.90;;;;;;;7.53;94.72;100920.91;5009940;28;20470;-73
2023/04/11 03:07:47;;;;;;;18.90;3.55;;;;;;;7.50;94.32;100923.59;5010345;28;20037;-73
2023/04/11 03:10:13;;;;;;;23.48;4.13;;;;;;;7.46;94.91;100929.75;5011696;28;20042;-73
2023/04/11 03:12:38;;;;;;;24.52;4.05;;;;;;;7.44;93.85;100933.28;4993789;28;20057;-73
2023/04/11 03:15:06;;;;;;;26.38;4.65;;;;;;;7.44;93.91;100934.19;5010137;28;20528;-73
2023/04/11 03:17:32;;;;;;;34.35;4.55;;;;;;;7.45;93.19;100924.50;5012182;28;20370;-73
2023/04/11 03:19:58;;;;;;;26.45;3.90;;;;;;;7.44;94.26;100934.19;5013649;28;20426;-73
2023/04/11 03:22:24;;;;;;;30.13;4.65;;;;;;;7.41;94.68;100933.31;5046935;28;20076;-73
2023/04/11 03:24:50;;;;;;;26.25;4.40;;;;;;;7.42;95.06;100940.31;5014985;28;20109;-72
2023/04/11 03:27:18;;;;;;;22.75;3.85;;;;;;;7.42;95.13;100941.22;5026321;28;20042;-73
2023/04/11 03:29:47;;;;;;;26.20;4.90;;;;;;;7.46;95.88;100948.19;5013544;28;20128;-73
2023/04/11 03:32:22;;;;;;;26.65;4.93;;;;;;;7.46;96.18;100950.84;5013524;28;20061;-73
2023/04/11 03:34:49;;;;;;;23.92;4.07;;;;;;;7.53;95.30;100954.31;5013283;28;20069;-73
2023/04/11 03:37:15;;;;;;;18.17;4.35;;;;;;;7.51;95.53;100953.44;5014833;28;20037;-73
2023/04/11 03:39:41;;;;;;;17.35;3.53;;;;;;;7.55;95.17;100960.44;5011791;28;20048;-73
2023/04/11 03:42:06;;;;;;;18.80;3.55;;;;;;;7.53;95.26;100960.44;5015672;28;20022;-73
2023/04/11 03:44:32;;;;;;;25.83;4.00;;;;;;;7.59;93.96;100964.81;5013043;28;20046;-73
2023/04/11 03:46:58;;;;;;;24.05;3.45;;;;;;;7.67;93.24;100964.75;5013412;28;20125;-73
2023/04/11 03:49:29;;;;;;;21.38;3.80;;;;;;;7.59;92.49;100959.56;5013054;28;20056;-80
2023/04/11 03:51:55;;;;;;;21.92;3.53;;;;;;;7.64;91.28;100955.13;4996784;28;20033;-83
2023/04/11 03:54:21;;;;;;;20.48;3.40;;;;;;;7.59;92.43;100956.91;5012890;28;20385;-80
2023/04/11 03:56:47;;;;;;;17.33;2.97;;;;;;;7.64;90.83;100964.75;5012980;28;20064;-81
2023/04/11 03:59:19;;;;;;;22.52;3.90;;;;;;;7.62;91.82;100974.47;5013027;28;20092;-81
2023/04/11 04:01:51;;;;;;;17.27;3.45;;;;;;;7.60;91.08;100961.28;5031930;28;20041;-81
2023/04/11 04:04:16;;;;;;;11.15;2.88;;;;;;;7.60;91.57;100979.72;5012845;28;20201;-81
2023/04/11 04:06:47;;;;;;;18.88;3.30;;;;;;;7.60;92.69;100976.22;4996874;28;20054;-81
2023/04/11 04:09:12;;;;;;;14.18;2.63;;;;;;;7.57;92.17;100973.59;5012902;28;20124;-81
2023/04/11 04:11:49;;;;;;;17.55;3.22;;;;;;;7.66;91.22;100973.53;5012815;28;20060;-81
2023/04/11 04:14:16;;;;;;;22.95;4.13;;;;;;;7.59;92.11;100987.63;5012639;28;20481;-81
2023/04/11 04:16:42;;;;;;;18.98;3.10;;;;;;;7.56;91.88;100978.00;5012870;28;20087;-81
2023/04/11 04:19:09;;;;;;;14.25;3.00;;;;;;;7.60;91.65;100986.78;5012279;28;20057;-81
2023/04/11 04:21:36;;;;;;;19.00;3.13;;;;;;;7.52;91.39;100978.94;5012314;28;20062;-81
2023/04/11 04:24:03;;;;;;;11.45;2.45;;;;;;;7.49;91.78;100989.47;5012404;28;20121;-81
2023/04/11 04:26:59;;;;;;;21.95;3.40;;;;;;;7.43;91.85;100984.25;5012974;28;20077;-80
2023/04/11 04:29:46;;;;;;;21.45;3.15;;;;;;;7.42;91.88;100999.19;5000574;28;20488;-81
2023/04/11 04:32:22;;;;;;;27.67;3.92;;;;;;;7.39;91.40;100988.66;5012116;28;20076;-80
2023/04/11 04:34:54;;;;;;;19.08;3.25;;;;;;;7.35;91.79;100992.22;5010435;28;20057;-81
2023/04/11 04:37:38;;;;;;;14.88;3.10;;;;;;;7.29;92.22;100997.50;5008480;28;20048;-80
2023/04/11 04:40:14;;;;;;;20.88;3.75;;;;;;;7.31;91.54;101001.00;5011065;28;20091;-81
2023/04/11 04:42:48;;;;;;;16.45;3.58;;;;;;;7.24;91.81;101004.56;5012096;28;20038;-80
2023/04/11 04:45:15;;;;;;;22.70;3.65;;;;;;;7.28;90.96;101007.16;5012111;28;20419;-81
2023/04/11 04:47:40;;;;;;;16.83;2.50;;;;;;;7.19;91.89;101015.09;5009735;28;20060;-80
2023/04/11 04:50:07;;;;;;;24.27;3.78;;;;;;;7.15;91.16;101009.88;5001508;28;20045;-80
2023/04/11 04:52:32;;;;;;;19.17;2.75;;;;;;;7.15;91.42;101018.66;5013619;28;20030;-80
2023/04/11 04:54:58;;;;;;;22.42;3.35;;;;;;;7.09;91.99;101023.94;5005850;28;20343;-81
2023/04/11 04:57:26;;;;;;;16.90;2.92;;;;;;;7.07;91.73;101034.50;5017744;28;20029;-81
2023/04/11 04:59:52;;;;;;;17.65;3.60;;;;;;;7.03;91.48;101039.78;5027726;28;20095;-80
2023/04/11 05:02:18;;;;;;;23.38;3.65;;;;;;;7.06;91.62;101045.91;5036058;28;20036;-81
2023/04/11 05:04:45;;;;;;;17.33;3.67;;;;;;;7.02;91.70;101041.53;5011607;28;20042;-81
2023/04/11 05:07:14;;;;;;;21.40;3.20;;;;;;;7.01;92.00;101047.69;4995530;28;20446;-80
2023/04/11 05:09:40;;;;;;;22.20;5.88;;;;;;;7.11;91.50;101046.75;5011522;28;20057;-81
2023/04/11 05:12:15;;;;;;;15.48;3.50;;;;;;;7.04;92.02;101052.06;5011557;28;20030;-80
2023/04/11 05:14:41;;;;;;;17.45;3.45;;;;;;;6.97;91.78;101059.09;5017285;28;20042;-81
2023/04/11 05:17:06;;;;;;;16.65;3.22;;;;;;;6.95;92.63;101049.44;4995760;28;20030;-80
2023/04/11 05:19:32;;;;;;;25.77;3.70;;;;;;;6.93;91.84;101056.50;5011577;28;20115;-80
2023/04/11 05:21:58;;;;;;;16.73;3.08;;;;;;;6.90;92.26;101057.38;5013175;28;20477;-80
2023/04/11 05:24:24;;;;;;;23.30;3.65;;;;;;;6.87;92.54;101068.81;5011661;28;20117;-80
2023/04/11 05:26:50;;;;;;;19.52;3.50;;;;;;;6.86;92.59;101061.78;4993423;28;20452;-80
2023/04/11 05:29:17;;;;;;;15.63;2.80;;;;;;;6.82;92.50;101065.28;4996747;28;20030;-80
2023/04/11 05:31:43;;;;;;;12.02;2.53;;;;;;;6.82;92.92;101062.66;5017643;28;20034;-80
2023/04/11 05:34:09;;;;;;;17.02;3.38;;;;;;;6.84;93.26;101065.28;5023911;28;20065;-80
2023/04/11 05:36:35;;;;;;;22.17;3.22;;;;;;;6.85;92.96;101069.69;5011160;28;20397;-80
2023/04/11 05:39:01;;;;;;;14.15;2.90;;;;;;;6.86;93.35;101077.56;5044386;28;20128;-81
2023/04/11 05:41:26;;;;;;;25.92;4.20;;;;;;;6.87;93.70;101078.44;5010515;28;20109;-80
2023/04/11 05:43:53;;;;;;;21.38;3.10;;;;;;;6.83;93.28;101076.72;4995664;28;20038;-81
2023/04/11 05:46:18;;;;;;;19.02;3.38;;;;;;;6.89;93.27;101090.72;5011110;28;20393;-81
2023/04/11 05:48:44;;;;;;;15.98;3.53;;;;;;;6.94;93.58;101093.34;5023350;28;20048;-81
2023/04/11 05:51:09;;;;;;;18.42;3.05;;;;;;;6.99;93.22;101098.59;5024466;28;20030;-80
2023/04/11 05:53:35;;;;;;;15.52;3.13;;;;;;;7.01;94.03;101097.72;5031944;28;20041;-81
2023/04/11 05:56:00;;;;;;;17.95;3.80;;;;;;;7.05;93.59;101096.81;4994714;28;20056;-79
2023/04/11 05:58:28;;;;;;;27.15;3.25;;;;;;;7.14;93.04;101102.94;5026948;28;20064;-83
2023/04/11 06:00:54;;;;;;;16.80;3.00;;;;;;;7.12;93.40;101110.81;5010795;28;20033;-82
2023/04/11 06:03:20;;;;;;;16.27;2.95;;;;;;;7.20;93.77;101111.69;5012220;28;20060;-82
2023/04/11 06:05:46;;;;;;;19.35;2.88;;;;;;;7.20;93.75;101113.47;5011826;28;20167;-82
2023/04/11 06:08:11;;;;;;;16.92;2.92;;;;;;;7.21;93.71;101120.47;4994214;28;20450;-82
2023/04/11 06:10:37;;;;;;;23.67;3.20;;;;;;;7.23;92.58;101123.97;5012467;28;20519;-84
2023/04/11 06:13:02;;;;;;;21.35;3.65;;;;;;;7.23;93.03;101127.47;5009621;28;20061;-83
2023/04/11 06:15:28;;;;;;;15.23;3.65;;;;;;;7.27;93.57;101125.69;5012210;28;20531;-82
2023/04/11 06:17:54;;;;;;;17.83;2.53;;;;;;;7.32;92.54;101134.50;5011264;28;20040;-83
2023/04/11 06:20:21;;;;;;;17.05;2.70;;;;;;;7.34;92.61;101130.06;5008702;28;20439;-83
2023/04/11 06:22:50;;;;;;;18.48;3.55;;;;;;;7.35;92.47;101129.19;5007628;28;20122;-83
2023/04/11 06:25:16;;;;;;;8.75;2.30;;;;;;;7.37;92.08;101139.72;5014463;28;20025;-83
2023/04/11 06:27:42;;;;;;;16.98;2.88;;;;;;;7.35;92.34;101138.88;5016511;28;20038;-83
2023/04/11 06:30:08;;;;;;;17.35;3.95;;;;;;;7.34;92.93;101132.69;5010308;28;20034;-83
2023/04/11 06:32:34;;;;;;;17.25;3.45;;;;;;;7.34;92.29;101132.69;5011646;28;20049;-83
2023/04/11 06:34:59;;;;;;;17.88;3.78;;;;;;;7.42;91.89;101132.66;5008341;28;20506;-83
2023/04/11 06:37:25;;;;;;;19.70;3.03;;;;;;;7.46;91.59;101131.78;5020782;28;20390;-83
2023/04/11 06:39:50;;;;;;;27.13;3.97;;;;;;;7.49;92.25;101135.28;5008367;28;20038;-84
2023/04/11 06:42:16;;;;;;;16.33;2.95;;;;;;;7.55;91.57;101137.03;5010462;28;20034;-83
2023/04/11 06:44:44;;;;;;;15.55;3.33;;;;;;;7.59;90.99;101144.03;5010097;28;20034;-83
2023/04/11 06:47:10;;;;;;;13.60;2.90;;;;;;;7.67;90.34;101142.22;5011331;28;20114;-83
2023/04/11 06:49:35;;;;;;;18.73;5.25;;;;;;;7.73;89.59;101138.69;5010132;28;20671;-84
2023/04/11 06:52:02;;;;;;;16.02;3.40;;;;;;;7.79;89.27;101143.03;5011690;28;20083;-84
2023/04/11 06:54:27;;;;;;;10.77;3.72;;;;;;;7.88;88.75;101145.63;5014288;28;20074;-83
2023/04/11 06:56:53;;;;;;;20.30;3.25;;;;;;;7.93;87.78;101163.16;5014718;28;20053;-83
2023/04/11 06:59:19;;;;;;;18.40;3.45;;;;;;;7.98;87.34;101152.59;5014090;28;20037;-83
2023/04/11 07:01:45;;;;;;;18.77;3.45;;;;;;;8.11;86.12;101151.66;5015406;28;20056;-83
2023/04/11 07:04:10;;;;;;;17.38;3.35;;;;;;;8.11;86.11;101150.75;5015668;28;20091;-83
2023/04/11 07:06:36;;;;;;;20.90;3.50;;;;;;;8.17;86.20;101159.50;5015993;28;20053;-83
2023/04/11 07:09:03;;;;;;;16.33;2.35;;;;;;;8.28;86.14;101161.19;5015163;28;20473;-82
2023/04/11 07:11:29;;;;;;;16.75;4.00;;;;;;;8.33;85.43;101164.66;5016643;28;20041;-83
2023/04/11 07:13:55;;;;;;;13.60;3.35;;;;;;;8.36;84.43;101176.09;5047040;28;20037;-83
2023/04/11 07:16:21;;;;;;;12.40;2.65;;;;;;;8.42;84.74;101171.69;5008989;28;20030;-75
2023/04/11 07:18:47;;;;;;;17.27;4.07;;;;;;;8.44;84.71;101176.06;5007118;28;20033;-75
2023/04/11 07:21:14;;;;;;;19.85;3.22;;;;;;;8.55;83.39;101178.59;5014803;28;20366;-75
2023/04/11 07:23:41;;;;;;;12.75;2.80;;;;;;;8.56;83.61;101172.47;5014712;28;20527;-75
2023/04/11 07:26:10;;;;;;;15.73;2.88;;;;;;;8.72;82.79;101186.38;5014802;28;20033;-75
2023/04/11 07:28:37;;;;;;;13.25;2.63;;;;;;;8.83;82.27;101188.06;5013609;28;20108;-75
2023/04/11 07:31:10;;;;;;;16.90;3.88;;;;;;;8.87;81.72;101185.38;5014533;28;20029;-75
2023/04/11 07:33:36;;;;;;;23.73;3.75;;;;;;;8.79;81.13;101190.72;5013578;28;20064;-75
2023/04/11 07:36:02;;;;;;;16.77;3.22;;;;;;;8.83;81.09;101188.06;5009051;28;20033;-75
2023/04/11 07:38:28;;;;;;;17.85;3.00;;;;;;;8.77;80.94;101196.00;5005056;28;20037;-76
2023/04/11 07:40:59;;;;;;;20.45;2.92;;;;;;;8.79;82.08;101204.81;5012164;28;20404;-76
2023/04/11 07:43:25;;;;;;;17.95;3.35;;;;;;;8.81;80.88;101203.03;5013112;28;20062;-76
2023/04/11 07:45:52;;;;;;;18.83;3.67;;;;;;;8.92;78.67;101191.50;5014184;28;20018;-76
2023/04/11 07:48:17;;;;;;;17.33;3.20;;;;;;;8.71;78.90;101195.22;5009818;28;20118;-76
2023/04/11 07:50:43;;;;;;;16.73;3.78;;;;;;;8.75;79.81;101199.56;5007724;28;20472;-76
2023/04/11 07:53:09;;;;;;;18.02;3.00;;;;;;;8.83;79.40;101206.53;5009477;28;20033;-76
2023/04/11 07:55:38;;;;;;;19.35;3.28;;;;;;;8.95;79.55;101204.66;5005750;28;20034;-76
2023/04/11 07:58:03;;;;;;;17.33;3.22;;;;;;;9.07;77.43;101191.34;5014288;28;20084;-76
2023/04/11 08:00:31;;;;;;;21.60;3.05;;;;;;;9.16;76.97;101200.94;5014378;28;20405;-75
2023/04/11 08:03:01;;;;;;;14.57;3.33;;;;;;;9.31;77.13;101206.06;5012376;28;20074;-76
2023/04/11 08:05:30;;;;;;;22.23;2.78;;;;;;;9.51;74.52;101202.31;5028756;28;20107;-84
2023/04/11 08:07:56;;;;;;;12.93;3.60;;;;;;;9.52;73.87;101198.78;5014109;28;20444;-83
2023/04/11 08:10:22;;;;;;;12.20;2.92;;;;;;;9.66;73.53;101232.09;5012960;28;20042;-84
2023/04/11 08:12:48;;;;;;;17.40;3.10;;;;;;;9.55;72.16;101209.34;5012968;28;20396;-84
2023/04/11 08:15:14;;;;;;;12.15;2.78;;;;;;;9.58;70.30;101236.59;5014071;28;20038;-84
2023/04/11 08:17:42;;;;;;;11.93;2.35;;;;;;;9.48;70.83;101225.25;5014198;28;20041;-85
2023/04/11 08:20:11;;;;;;;14.52;2.67;;;;;;;9.51;70.81;101226.13;5014145;28;20053;-84
2023/04/11 08:22:41;;;;;;;13.40;3.30;;;;;;;9.41;70.51;101231.50;5012952;28;20080;-77
2023/04/11 08:25:08;;;;;;;17.65;3.17;;;;;;;9.42;69.98;101233.28;5000047;28;20061;-76
2023/04/11 08:27:33;;;;;;;15.40;2.95;;;;;;;9.46;70.48;101247.31;5012678;28;20029;-76
2023/04/11 08:29:59;;;;;;;12.02;2.67;;;;;;;9.41;70.17;101235.91;5012293;28;20037;-76
2023/04/11 08:32:24;;;;;;;18.10;3.10;;;;;;;9.37;70.69;101240.38;4998464;28;20393;-77
2023/04/11 08:34:50;;;;;;;13.18;3.38;;;;;;;9.41;70.33;101255.28;5013462;28;20469;-76
2023/04/11 08:37:15;;;;;;;14.90;3.90;;;;;;;9.47;69.14;101257.03;5012240;28;20030;-76
2023/04/11 08:39:41;;;;;;;15.75;2.80;;;;;;;9.68;70.29;101250.59;5011066;28;20052;-76
2023/04/11 08:42:19;;;;;;;15.20;3.08;;;;;;;9.81;70.50;101249.53;5012114;28;20044;-76
2023/04/11 08:44:51;;;;;;;16.38;3.58;;;;;;;9.84;68.87;101252.19;5013325;28;20042;-76
2023/04/11 08:47:16;;;;;;;15.13;3.00;;;;;;;9.94;69.36;101250.28;5000960;28;20048;-83
2023/04/11 08:49:42;;;;;;;13.88;2.83;;;;;;;10.07;69.99;101253.66;5002326;28;20027;-83
2023/04/11 08:52:08;;;;;;;18.85;2.65;;;;;;;10.22;69.65;101252.56;5008139;28;20037;-83
2023/04/11 08:54:33;;;;;;;9.45;2.58;;;;;;;10.39;68.24;101260.31;5011007;28;20018;-81
2023/04/11 08:57:02;;;;;;;16.65;3.05;;;;;;;10.41;67.48;101254.09;5019956;28;20119;-83
2023/04/11 08:59:27;;;;;;;17.75;2.88;;;;;;;10.41;66.64;101254.09;5013609;28;20033;-83
2023/04/11 09:02:06;;;;;;;11.35;2.42;;;;;;;10.54;65.50;101249.50;5011808;28;20037;-83
2023/04/11 09:04:39;;;;;;;9.50;2.70;;;;;;;10.65;65.11;101244.03;5010464;28;20099;-84
2023/04/11 09:07:05;;;;;;;16.65;3.53;;;;;;;10.67;61.49;101251.03;5013650;28;20053;-84
2023/04/11 09:09:32;;;;;;;6.60;2.13;;;;;;;10.79;61.83;101246.47;5013373;28;20073;-83
2023/04/11 09:11:58;;;;;;;16.45;3.05;;;;;;;10.80;62.52;101240.25;5008758;28;20045;-84
2023/04/11 09:14:25;;;;;;;16.23;3.13;;;;;;;10.97;59.90;101262.03;5011897;28;20017;-85
2023/04/11 09:17:05;;;;;;;14.02;2.38;;;;;;;10.83;59.40;101242.84;5013319;28;20049;-84
2023/04/11 09:19:33;;;;;;;13.75;2.92;;;;;;;10.89;58.62;101261.31;5011992;28;20076;-85
2023/04/11 09:22:03;;;;;;;11.68;2.63;;;;;;;10.91;58.06;101249.78;5003378;28;20172;-84
2023/04/11 09:24:29;;;;;;;14.00;2.50;;;;;;;11.07;58.21;101260.97;5008849;28;20037;-85
2023/04/11 09:27:11;;;;;;;10.50;2.20;;;;;;;11.09;58.37;101256.53;5007080;28;20292;-85
2023/04/11 09:29:41;;;;;;;13.13;2.70;;;;;;;11.21;57.79;101268.69;5006414;28;20082;-85
2023/04/11 09:32:26;;;;;;;8.95;2.33;;;;;;;11.39;55.77;101271.00;5010370;28;20042;-83
2023/04/11 09:35:08;;;;;;;12.70;2.45;;;;;;;11.29;55.10;101282.69;5011021;28;20114;-84
2023/04/11 09:37:48;;;;;;;19.55;2.28;;;;;;;11.39;55.80;101278.97;5010540;28;20197;-84
2023/04/11 09:40:15;;;;;;;11.95;2.72;;;;;;;11.47;54.40;101270.00;5007809;28;20056;-83
2023/04/11 09:42:42;;;;;;;13.20;2.90;;;;;;;11.49;54.97;101268.19;5007286;28;20038;-82
2023/04/11 09:45:19;;;;;;;12.68;2.22;;;;;;;11.54;56.11;101264.53;4991029;28;20117;-84
2023/04/11 09:47:46;;;;;;;13.82;3.42;;;;;;;11.57;56.86;101268.91;5039162;28;20021;-82
2023/04/11 09:50:18;;;;;;;8.75;2.30;;;;;;;11.67;55.06;101261.66;5006884;28;20030;-84
2023/04/11 09:52:45;;;;;;;11.85;2.53;;;;;;;11.76;55.85;101272.97;5007213;28;20373;-83
2023/04/11 09:55:17;;;;;;;11.30;2.45;;;;;;;11.75;55.08;101273.00;5007189;28;20049;-83
2023/04/11 09:57:50;;;;;;;11.80;2.40;;;;;;;11.51;56.33;101280.53;5038853;28;20025;-86
2023/04/11 10:00:31;;;;;;;14.32;2.80;;;;;;;11.33;56.92;101291.47;5005916;28;20033;-85
2023/04/11 10:02:59;;;;;;;14.55;3.03;;;;;;;11.11;58.52;101280.38;5007129;28;20088;-82
2023/04/11 10:05:27;;;;;;;12.23;2.35;;;;;;;11.11;57.96;101283.03;4989020;28;20108;-80
2023/04/11 10:08:03;;;;;;;11.73;2.35;;;;;;;11.15;58.82;101285.59;5006517;28;20405;-73
2023/04/11 10:10:29;;;;;;;14.48;2.42;;;;;;;11.04;58.50;101284.88;5004948;28;20120;-82
2023/04/11 10:12:55;;;;;;;11.10;2.45;;;;;;;10.97;58.78;101281.47;4988386;28;20716;-83
2023/04/11 10:15:21;;;;;;;15.20;3.33;;;;;;;10.85;59.11;101289.59;5004627;28;20120;-82
2023/04/11 10:18:06;;;;;;;10.30;2.45;;;;;;;10.72;60.28;101294.22;5004909;28;20064;-82
2023/04/11 10:20:35;;;;;;;24.45;4.85;;;;;;;10.69;61.67;101298.72;5005400;28;20072;-81
2023/04/11 10:23:01;;;;;;;12.13;2.92;;;;;;;10.60;56.83;101289.09;5004361;28;20030;-82
2023/04/11 10:25:27;;;;;;;8.23;2.40;;;;;;;10.50;56.08;101298.97;5006222;28;20092;-82
2023/04/11 10:27:59;;;;;;;12.57;2.53;;;;;;;10.35;56.71;101283.28;5005610;28;20088;-81
2023/04/11 10:30:40;;;;;;;7.32;1.92;;;;;;;10.45;57.94;101292.84;5004969;28;20126;-82
2023/04/11 10:33:16;;;;;;;9.40;2.13;;;;;;;10.64;57.21;101289.97;5020307;28;20052;-82
2023/04/11 10:36:08;;;;;;;11.70;2.65;;;;;;;10.87;56.44;101287.81;5005530;28;20029;-81
2023/04/11 10:38:40;;;;;;;12.25;2.63;;;;;;;11.13;56.08;101295.34;5004820;28;20064;-81
2023/04/11 10:41:32;;;;;;;12.32;2.53;;;;;;;11.35;54.20;101290.56;5004413;28;20064;-81
2023/04/11 10:44:19;;;;;;;10.98;1.98;;;;;;;11.50;53.47;101296.44;5037655;28;20034;-82
2023/04/11 10:46:53;;;;;;;9.00;2.25;;;;;;;11.63;52.42;101298.84;5005028;28;20068;-81
2023/04/11 10:49:37;;;;;;;14.70;2.40;;;;;;;11.62;53.10;101275.00;5006334;28;20377;-81
2023/04/11 10:52:16;;;;;;;11.70;2.67;;;;;;;11.49;53.54;101277.03;5006331;28;20030;-81
2023/04/11 10:54:43;;;;;;;9.05;2.30;;;;;;;11.37;53.47;101295.81;5021403;28;20535;-82
2023/04/11 10:57:09;;;;;;;7.60;2.00;;;;;;;11.21;52.54;101297.88;5006646;28;20092;-81
2023/04/11 10:59:37;;;;;;;9.95;1.98;;;;;;;11.12;52.82;101296.22;5004627;28;20152;-81
2023/04/11 11:02:02;;;;;;;14.40;2.67;;;;;;;11.14;52.37;101289.13;5006705;28;20021;-82
2023/04/11 11:04:38;;;;;;;11.52;2.45;;;;;;;11.14;52.82;101290.91;4988691;28;20042;-81
2023/04/11 11:07:06;;;;;;;10.77;2.25;;;;;;;11.11;50.16;101296.28;5020233;28;20066;-81
2023/04/11 11:09:33;;;;;;;6.88;1.80;;;;;;;11.18;49.17;101298.78;5004771;28;20033;-82
2023/04/11 11:12:05;;;;;;;9.18;1.95;;;;;;;11.28;48.31;101298.63;5020255;28;20371;-82
2023/04/11 11:14:33;;;;;;;5.88;2.03;;;;;;;11.43;46.93;101287.75;5005337;28;20030;-83
2023/04/11 11:16:59;;;;;;;13.00;1.92;;;;;;;11.62;47.97;101280.31;5005061;28;20033;-82
2023/04/11 11:19:25;;;;;;;7.43;2.00;;;;;;;11.84;48.48;101300.25;5004756;28;20335;-82
2023/04/11 11:21:51;;;;;;;11.18;2.17;;;;;;;11.97;49.43;101289.41;5004920;28;20092;-81
2023/04/11 11:24:24;;;;;;;6.22;1.85;;;;;;;11.99;48.20;101291.13;5006271;28;20046;-81
2023/04/11 11:26:51;;;;;;;8.20;1.90;;;;;;;12.03;47.58;101292.78;5003941;28;20034;-81
2023/04/11 11:29:39;;;;;;;6.60;1.60;;;;;;;12.35;47.91;101293.88;5009808;28;20416;-82